< < Back
Terminal Aerodrome Forecast


Current Version              Previous Versions:   1  2  3  4  5  6  7  8  9  

Terminal Aerodrome Forecast

281
FTUS42 KFFC 172306 AAA
TAFPDK
TAF AMD
KPDK 172306Z 1723/1818 02003KT 5SM -SHRA BR OVC005
      TEMPO 1723/1801 2SM BR
     FM180100 06003KT 4SM -RA BR BKN004
     FM180700 00000KT 2SM -DZ BR OVC002
     FM181500 09004KT P6SM BKN008=

Latest METAR

880
SAUS70 KWBC 180500
MTRPDK
METAR KPDK 180453Z AUTO VRB03KT 10SM OVC004 17/16 A3003 RMK AO2 SLP164
T01670161 401670122 TSNO


USA.gov is the U.S. government's official web portal to all federal, state and local government web resources and services.